createdAt,value
2023-10-20T00:00:43.130Z,13.86
2023-10-20T00:03:10.043Z,13.84
2023-10-20T00:05:37.015Z,13.82
2023-10-20T00:08:04.008Z,13.78
2023-10-20T00:10:36.161Z,13.77
2023-10-20T00:13:03.734Z,13.73
2023-10-20T00:15:30.197Z,13.69
2023-10-20T00:17:56.698Z,13.64
2023-10-20T00:20:23.224Z,13.58
2023-10-20T00:22:49.682Z,13.53
2023-10-20T00:25:16.279Z,13.49
2023-10-20T00:27:42.779Z,13.44
2023-10-20T00:30:10.607Z,13.39
2023-10-20T00:32:41.170Z,13.33
2023-10-20T00:35:14.297Z,13.28
2023-10-20T00:37:41.917Z,13.25
2023-10-20T00:40:10.483Z,13.19
2023-10-20T00:42:37.624Z,13.15
2023-10-20T00:45:05.196Z,13.10
2023-10-20T00:47:32.674Z,13.06
2023-10-20T00:50:00.019Z,13.03
2023-10-20T00:52:28.400Z,13.00
2023-10-20T00:54:55.385Z,12.97
2023-10-20T00:57:23.057Z,12.94
2023-10-20T00:59:49.503Z,12.93
2023-10-20T01:02:16.016Z,12.90
2023-10-20T01:04:42.608Z,12.88
2023-10-20T01:07:08.989Z,12.85
2023-10-20T01:09:35.424Z,12.84
2023-10-20T01:12:01.826Z,12.82
2023-10-20T01:14:28.254Z,12.78
2023-10-20T01:16:55.344Z,12.75
2023-10-20T01:19:21.800Z,12.73
2023-10-20T01:21:48.196Z,12.70
2023-10-20T01:24:14.645Z,12.67
2023-10-20T01:26:41.174Z,12.64
2023-10-20T01:29:10.874Z,12.62
2023-10-20T01:31:37.889Z,12.59
2023-10-20T01:34:04.554Z,12.57
2023-10-20T01:36:31.045Z,12.55
2023-10-20T01:38:57.764Z,12.53
2023-10-20T01:41:24.410Z,12.51
2023-10-20T01:43:50.955Z,12.48
2023-10-20T01:46:17.430Z,12.48
2023-10-20T01:48:43.916Z,12.45
2023-10-20T01:51:10.414Z,12.43
2023-10-20T01:53:37.025Z,12.39
2023-10-20T01:56:03.752Z,12.38
2023-10-20T01:58:30.146Z,12.34
2023-10-20T02:00:56.623Z,12.32
2023-10-20T02:03:23.291Z,12.30
2023-10-20T02:05:49.868Z,12.28
2023-10-20T02:08:16.669Z,12.24
2023-10-20T02:10:46.446Z,12.22
2023-10-20T02:13:12.916Z,12.20
2023-10-20T02:15:40.065Z,12.18
2023-10-20T02:18:08.016Z,12.15
2023-10-20T02:20:34.678Z,12.13
2023-10-20T02:23:01.109Z,12.10
2023-10-20T02:25:27.554Z,12.09
2023-10-20T02:27:53.921Z,12.08
2023-10-20T02:30:20.386Z,12.05
2023-10-20T02:32:46.849Z,12.01
2023-10-20T02:35:13.647Z,11.98
2023-10-20T02:37:40.299Z,11.96
2023-10-20T02:40:07.359Z,11.93
2023-10-20T02:42:34.075Z,11.89
2023-10-20T02:45:00.889Z,11.85
2023-10-20T02:47:27.381Z,11.82
2023-10-20T02:49:56.513Z,11.76
2023-10-20T02:52:24.092Z,11.69
2023-10-20T02:54:54.578Z,11.61
2023-10-20T02:57:24.163Z,11.52
2023-10-20T02:59:50.971Z,11.49
2023-10-20T03:02:19.189Z,11.44
2023-10-20T03:04:45.657Z,11.37
2023-10-20T03:07:12.123Z,11.31
2023-10-20T03:09:38.750Z,11.28
2023-10-20T03:12:05.448Z,11.24
2023-10-20T03:14:32.956Z,11.19
2023-10-20T03:16:59.707Z,11.16
2023-10-20T03:19:26.172Z,11.13
2023-10-20T03:21:53.504Z,11.10
2023-10-20T03:24:20.316Z,11.08
2023-10-20T03:26:46.809Z,11.05
2023-10-20T03:29:13.433Z,11.02
2023-10-20T03:31:39.939Z,10.97
2023-10-20T03:34:06.622Z,10.93
2023-10-20T03:36:33.094Z,10.93
2023-10-20T03:38:59.870Z,10.91
2023-10-20T03:41:26.473Z,10.88
2023-10-20T03:43:54.790Z,10.84
2023-10-20T03:46:21.315Z,10.83
2023-10-20T03:48:47.851Z,10.82
2023-10-20T03:51:14.376Z,10.80
2023-10-20T03:53:59.024Z,10.81
2023-10-20T03:56:25.673Z,10.80
2023-10-20T03:58:52.196Z,10.75
2023-10-20T04:01:18.735Z,10.73
2023-10-20T04:03:50.553Z,10.70
2023-10-20T04:06:18.105Z,10.67
2023-10-20T04:08:44.591Z,10.66
2023-10-20T04:11:11.068Z,10.65
2023-10-20T04:13:37.498Z,10.61
2023-10-20T04:16:13.466Z,10.60
2023-10-20T04:18:44.383Z,10.61
2023-10-20T04:21:13.054Z,10.60
2023-10-20T04:23:40.461Z,10.60
2023-10-20T04:26:17.250Z,10.59
2023-10-20T04:28:47.457Z,10.58
2023-10-20T04:31:32.799Z,10.58
2023-10-20T04:34:18.147Z,10.56
2023-10-20T04:37:03.323Z,10.57
2023-10-20T04:39:48.072Z,10.57
2023-10-20T04:42:43.321Z,10.55
2023-10-20T04:45:23.071Z,10.56
2023-10-20T04:47:52.502Z,10.57
2023-10-20T04:50:39.353Z,10.56
2023-10-20T04:53:31.567Z,10.54
2023-10-20T04:56:15.971Z,10.54
2023-10-20T04:59:17.852Z,10.52
2023-10-20T05:01:48.730Z,10.51
2023-10-20T05:04:17.889Z,10.49
2023-10-20T05:06:44.787Z,10.49
2023-10-20T05:09:14.526Z,10.48
2023-10-20T05:11:44.356Z,10.47
2023-10-20T05:14:10.950Z,10.47
2023-10-20T05:16:37.616Z,10.44
2023-10-20T05:19:05.338Z,10.43
2023-10-20T05:21:34.582Z,10.44
2023-10-20T05:24:04.882Z,10.43
2023-10-20T05:26:34.576Z,10.43
2023-10-20T05:29:01.487Z,10.41
2023-10-20T05:31:30.982Z,10.41
2023-10-20T05:33:57.653Z,10.41
2023-10-20T05:36:24.121Z,10.38
2023-10-20T05:38:50.570Z,10.38
2023-10-20T05:41:17.726Z,10.40
2023-10-20T05:43:44.244Z,10.39
2023-10-20T05:46:18.921Z,10.37
2023-10-20T05:48:46.082Z,10.37
2023-10-20T05:51:13.244Z,10.36
2023-10-20T05:53:39.666Z,10.34
2023-10-20T05:56:07.157Z,10.31
2023-10-20T05:58:35.467Z,10.30
2023-10-20T06:01:08.332Z,10.30
2023-10-20T06:03:34.842Z,10.26
2023-10-20T06:06:02.574Z,10.23
2023-10-20T06:08:30.243Z,10.21
2023-10-20T06:11:01.200Z,10.20
2023-10-20T06:13:27.908Z,10.19
2023-10-20T06:15:54.333Z,10.17
2023-10-20T06:18:32.779Z,10.15
2023-10-20T06:21:02.816Z,10.14
2023-10-20T06:23:29.251Z,10.13
2023-10-20T06:25:55.667Z,10.12
2023-10-20T06:28:22.029Z,10.12
2023-10-20T06:30:49.599Z,10.08
2023-10-20T06:33:18.770Z,10.05
2023-10-20T06:35:52.469Z,10.03
2023-10-20T06:38:24.485Z,10.00
2023-10-20T06:40:50.951Z,9.99
2023-10-20T06:43:17.530Z,9.99
2023-10-20T06:45:44.833Z,9.98
2023-10-20T06:48:11.871Z,9.97
2023-10-20T06:50:38.419Z,9.96
2023-10-20T06:53:05.065Z,9.95
2023-10-20T06:55:54.791Z,9.95
2023-10-20T06:58:18.858Z,9.92
2023-10-20T07:00:48.825Z,9.90
2023-10-20T07:03:15.442Z,9.91
2023-10-20T07:05:42.622Z,9.90
2023-10-20T07:08:09.501Z,9.89
2023-10-20T07:10:38.567Z,9.87
2023-10-20T07:13:09.396Z,9.87
2023-10-20T07:15:36.351Z,9.84
2023-10-20T07:18:04.741Z,9.82
2023-10-20T07:20:31.483Z,9.79
2023-10-20T07:22:58.370Z,9.76
2023-10-20T07:25:25.003Z,9.70
2023-10-20T07:27:52.469Z,9.69
2023-10-20T07:30:18.959Z,9.67
2023-10-20T07:32:45.648Z,9.65
2023-10-20T07:35:13.302Z,9.66
2023-10-20T07:37:40.262Z,9.66
2023-10-20T07:40:08.228Z,9.65
2023-10-20T07:42:34.662Z,9.65
2023-10-20T07:45:01.457Z,9.62
2023-10-20T07:47:29.248Z,9.65
2023-10-20T07:49:58.849Z,9.62
2023-10-20T07:52:28.369Z,9.58
2023-10-20T07:54:54.931Z,9.57
2023-10-20T07:57:23.809Z,9.55
2023-10-20T07:59:50.323Z,9.53
2023-10-20T08:02:16.949Z,9.52
2023-10-20T08:04:43.610Z,9.54
2023-10-20T08:07:13.196Z,9.53
2023-10-20T08:09:39.646Z,9.53
2023-10-20T08:12:06.312Z,9.52
2023-10-20T08:14:34.891Z,9.49
2023-10-20T08:17:04.848Z,9.48
2023-10-20T08:19:32.098Z,9.47
2023-10-20T08:22:00.448Z,9.47
2023-10-20T08:24:27.074Z,9.46
2023-10-20T08:26:53.607Z,9.41
2023-10-20T08:29:20.192Z,9.39
2023-10-20T08:31:46.641Z,9.37
2023-10-20T08:34:13.195Z,9.35
2023-10-20T08:36:39.619Z,9.37
2023-10-20T08:39:25.714Z,9.37
2023-10-20T08:41:52.362Z,9.34
2023-10-20T08:44:19.838Z,9.34
2023-10-20T08:46:46.543Z,9.33
2023-10-20T08:49:14.461Z,9.32
2023-10-20T08:51:41.328Z,9.29
2023-10-20T08:54:09.628Z,9.26
2023-10-20T08:56:36.601Z,9.24
2023-10-20T08:59:03.283Z,9.24
2023-10-20T09:01:33.419Z,9.25
2023-10-20T09:04:02.258Z,9.24
2023-10-20T09:06:28.909Z,9.22
2023-10-20T09:08:56.337Z,9.19
2023-10-20T09:11:32.659Z,9.19
2023-10-20T09:14:00.302Z,9.16
2023-10-20T09:16:27.975Z,9.17
2023-10-20T09:18:55.825Z,9.18
2023-10-20T09:21:25.599Z,9.23
2023-10-20T09:24:03.569Z,9.24
2023-10-20T09:26:33.125Z,9.23
2023-10-20T09:29:00.661Z,9.19
2023-10-20T09:31:28.384Z,9.18
2023-10-20T09:33:55.608Z,9.16
2023-10-20T09:36:25.376Z,9.08
2023-10-20T09:38:56.664Z,9.00
2023-10-20T09:41:25.099Z,8.95
2023-10-20T09:43:54.066Z,8.90
2023-10-20T09:46:20.517Z,8.87
2023-10-20T09:48:52.235Z,8.83
2023-10-20T09:51:21.162Z,8.79
2023-10-20T09:53:48.554Z,8.76
2023-10-20T09:56:16.738Z,8.77
2023-10-20T09:58:43.333Z,8.76
2023-10-20T10:01:14.341Z,8.76
2023-10-20T10:03:43.868Z,8.75
2023-10-20T10:06:11.346Z,8.75
2023-10-20T10:08:40.079Z,8.71
2023-10-20T10:11:27.692Z,8.76
2023-10-20T10:14:02.306Z,8.75
2023-10-20T10:16:29.426Z,8.75
2023-10-20T10:19:06.493Z,8.77
2023-10-20T10:21:32.950Z,8.79
2023-10-20T10:24:11.286Z,8.83
2023-10-20T10:26:50.798Z,8.80
2023-10-20T10:29:17.906Z,8.81
2023-10-20T10:31:55.789Z,8.78
2023-10-20T10:34:26.436Z,8.73
2023-10-20T10:36:53.577Z,8.73
2023-10-20T10:39:28.473Z,8.78
2023-10-20T10:42:04.623Z,8.75
2023-10-20T10:44:35.742Z,8.75
2023-10-20T10:47:04.408Z,8.79
2023-10-20T10:49:33.109Z,8.82
2023-10-20T10:52:05.171Z,8.86
2023-10-20T10:54:35.148Z,8.89
2023-10-20T10:57:04.836Z,8.87
2023-10-20T10:59:32.093Z,8.88
2023-10-20T11:04:30.660Z,8.82
2023-10-20T11:06:57.186Z,8.81
2023-10-20T11:09:28.473Z,8.82
2023-10-20T11:11:54.916Z,8.82
2023-10-20T11:14:23.199Z,8.84
2023-10-20T11:16:50.431Z,8.87
2023-10-20T11:19:18.624Z,8.89
2023-10-20T11:21:50.375Z,8.91
2023-10-20T11:24:26.556Z,8.91
2023-10-20T11:26:58.513Z,8.92
2023-10-20T11:29:39.797Z,8.94
2023-10-20T11:32:16.435Z,8.96
2023-10-20T11:34:44.953Z,8.99
2023-10-20T11:37:12.825Z,9.01
2023-10-20T11:39:39.813Z,9.03
2023-10-20T11:42:07.204Z,9.06
2023-10-20T11:44:33.939Z,9.06
2023-10-20T11:47:00.808Z,9.08
2023-10-20T11:49:27.291Z,9.16
2023-10-20T11:51:54.357Z,9.17
2023-10-20T11:54:20.945Z,9.15
2023-10-20T11:56:47.486Z,9.12
2023-10-20T11:59:13.990Z,9.12
2023-10-20T12:01:40.715Z,9.11
2023-10-20T12:04:08.321Z,9.13
2023-10-20T12:06:37.605Z,9.18
2023-10-20T12:09:10.266Z,9.26
2023-10-20T12:11:39.172Z,9.27
2023-10-20T12:14:06.315Z,9.26
2023-10-20T12:16:33.055Z,9.24
2023-10-20T12:19:08.645Z,9.24
2023-10-20T12:21:36.258Z,9.24
2023-10-20T12:24:02.768Z,9.26
2023-10-20T12:26:29.268Z,9.27
2023-10-20T12:28:58.034Z,9.30
2023-10-20T12:31:29.430Z,9.31
2023-10-20T12:33:56.071Z,9.30
2023-10-20T12:36:22.547Z,9.31
2023-10-20T12:38:49.323Z,9.33
2023-10-20T12:41:15.965Z,9.34
2023-10-20T12:43:43.038Z,9.31
2023-10-20T12:46:13.199Z,9.27
2023-10-20T12:48:41.085Z,9.28
2023-10-20T12:51:12.196Z,9.27
2023-10-20T12:53:39.062Z,9.29
2023-10-20T12:56:06.327Z,9.30
2023-10-20T12:58:39.367Z,9.29
2023-10-20T13:01:06.075Z,9.31
2023-10-20T13:03:32.961Z,9.31
2023-10-20T13:05:59.528Z,9.31
2023-10-20T13:08:25.983Z,9.29
2023-10-20T13:10:52.879Z,9.29
2023-10-20T13:13:19.354Z,9.25
2023-10-20T13:15:46.567Z,9.25
2023-10-20T13:18:16.825Z,9.24
2023-10-20T13:20:46.741Z,9.25
2023-10-20T13:23:13.802Z,9.26
2023-10-20T13:25:40.282Z,9.26
2023-10-20T13:28:07.032Z,9.26
2023-10-20T13:30:33.621Z,9.27
2023-10-20T13:33:01.660Z,9.24
2023-10-20T13:35:28.110Z,9.23
2023-10-20T13:37:54.577Z,9.23
2023-10-20T13:40:21.050Z,9.22
2023-10-20T13:42:48.227Z,9.21
2023-10-20T13:45:14.612Z,9.20
2023-10-20T13:47:41.070Z,9.20
2023-10-20T13:50:09.843Z,9.20
2023-10-20T13:52:36.475Z,9.16
2023-10-20T13:55:03.269Z,9.16
2023-10-20T13:57:29.709Z,9.17
2023-10-20T13:59:56.364Z,9.14
2023-10-20T14:02:23.025Z,9.15
2023-10-20T14:04:49.601Z,9.13
2023-10-20T14:07:15.965Z,9.15
2023-10-20T14:09:42.334Z,9.16
2023-10-20T14:12:09.714Z,9.14
2023-10-20T14:14:36.228Z,9.16
2023-10-20T14:17:07.417Z,9.17
2023-10-20T14:19:35.682Z,9.15
2023-10-20T14:22:02.826Z,9.16
2023-10-20T14:24:29.372Z,9.19
2023-10-20T14:26:57.621Z,9.23
2023-10-20T14:29:24.011Z,9.25
2023-10-20T14:31:50.607Z,9.28
2023-10-20T14:34:17.042Z,9.29
2023-10-20T14:36:43.452Z,9.29
2023-10-20T14:39:12.652Z,9.29
2023-10-20T14:41:39.147Z,9.30
2023-10-20T14:44:05.666Z,9.33
2023-10-20T14:46:32.130Z,9.36
2023-10-20T14:48:58.588Z,9.39
2023-10-20T14:51:24.977Z,9.42
2023-10-20T14:53:51.505Z,9.41
2023-10-20T14:56:18.061Z,9.47
2023-10-20T14:58:46.305Z,9.50
2023-10-20T15:01:13.201Z,9.52
2023-10-20T15:03:39.988Z,9.52
2023-10-20T15:06:07.075Z,9.54
2023-10-20T15:08:34.424Z,9.56
2023-10-20T15:11:07.097Z,9.55
2023-10-20T15:13:33.709Z,9.55
2023-10-20T15:16:06.120Z,9.56
2023-10-20T15:18:32.974Z,9.57
2023-10-20T15:20:59.861Z,9.59
2023-10-20T15:23:26.379Z,9.60
2023-10-20T15:25:52.795Z,9.61
2023-10-20T15:28:19.348Z,9.63
2023-10-20T15:30:45.876Z,9.62
2023-10-20T15:33:13.024Z,9.66
2023-10-20T15:35:40.944Z,9.67
2023-10-20T15:38:11.098Z,9.67
2023-10-20T15:40:38.158Z,9.68
2023-10-20T15:43:07.486Z,9.69
2023-10-20T15:45:33.894Z,9.70
2023-10-20T15:48:04.933Z,9.71
2023-10-20T15:50:32.368Z,9.71
2023-10-20T15:52:59.412Z,9.72
2023-10-20T15:55:25.981Z,9.73
2023-10-20T15:57:52.449Z,9.76
2023-10-20T16:00:19.052Z,9.77
2023-10-20T16:02:45.558Z,9.81
2023-10-20T16:05:12.123Z,9.82
2023-10-20T16:07:38.548Z,9.84
2023-10-20T16:10:05.519Z,9.85
2023-10-20T16:12:32.061Z,9.85
2023-10-20T16:14:58.572Z,9.86
2023-10-20T16:17:25.149Z,9.87
2023-10-20T16:19:51.558Z,9.89
2023-10-20T16:22:18.157Z,9.91
2023-10-20T16:24:45.505Z,9.93
2023-10-20T16:27:12.993Z,9.95
2023-10-20T16:29:39.535Z,10.00
2023-10-20T16:32:06.499Z,10.02
2023-10-20T16:34:34.162Z,10.04
2023-10-20T16:37:01.191Z,10.07
2023-10-20T16:39:27.894Z,10.12
2023-10-20T16:41:54.449Z,10.14
2023-10-20T16:44:20.986Z,10.18
2023-10-20T16:46:48.172Z,10.21
2023-10-20T16:49:14.584Z,10.24
2023-10-20T16:51:44.590Z,10.26
2023-10-20T16:54:12.172Z,10.27
2023-10-20T16:56:39.144Z,10.29
2023-10-20T16:59:05.677Z,10.33
2023-10-20T17:01:32.985Z,10.38
2023-10-20T17:03:59.964Z,10.41
2023-10-20T17:06:26.507Z,10.44
2023-10-20T17:08:53.117Z,10.47
2023-10-20T17:11:20.201Z,10.52
2023-10-20T17:13:46.705Z,10.56
2023-10-20T17:16:13.155Z,10.63
2023-10-20T17:18:39.737Z,10.69
2023-10-20T17:21:10.420Z,10.76
2023-10-20T17:23:37.070Z,10.81
2023-10-20T17:26:05.091Z,10.90
2023-10-20T17:28:34.188Z,10.98
2023-10-20T17:31:03.641Z,11.06
2023-10-20T17:33:30.315Z,11.11
2023-10-20T17:36:04.648Z,11.16
2023-10-20T17:38:31.421Z,11.21
2023-10-20T17:41:05.551Z,11.27
2023-10-20T17:43:32.834Z,11.33
2023-10-20T17:46:04.960Z,11.41
2023-10-20T17:48:31.427Z,11.48
2023-10-20T17:51:05.123Z,11.54
2023-10-20T17:53:32.914Z,11.60
2023-10-20T17:56:06.425Z,11.64
2023-10-20T17:58:33.181Z,11.70
2023-10-20T18:01:09.737Z,11.77
2023-10-20T18:03:41.311Z,11.79
2023-10-20T18:06:13.776Z,11.82
2023-10-20T18:08:42.892Z,11.88
2023-10-20T18:11:11.179Z,11.96
2023-10-20T18:13:44.243Z,12.00
2023-10-20T18:16:16.260Z,12.11
2023-10-20T18:18:45.734Z,12.25
2023-10-20T18:21:13.229Z,12.34
2023-10-20T18:23:40.491Z,12.48
2023-10-20T18:26:08.341Z,12.57
2023-10-20T18:28:35.623Z,12.66
2023-10-20T18:31:10.923Z,12.77
2023-10-20T18:33:37.464Z,12.82
2023-10-20T18:36:04.418Z,12.91
2023-10-20T18:38:30.795Z,12.96
2023-10-20T18:40:57.237Z,13.01
2023-10-20T18:43:23.663Z,13.02
2023-10-20T18:46:00.738Z,13.04
2023-10-20T18:48:28.006Z,13.09
2023-10-20T18:51:04.037Z,13.12
2023-10-20T18:53:31.046Z,13.15
2023-10-20T18:55:58.151Z,13.16
2023-10-20T18:58:24.562Z,13.17
2023-10-20T19:00:53.176Z,13.19
2023-10-20T19:03:20.631Z,13.19
2023-10-20T19:05:48.983Z,13.21
2023-10-20T19:08:15.536Z,13.21
2023-10-20T19:10:41.960Z,13.21
2023-10-20T19:13:08.478Z,13.20
2023-10-20T19:15:34.922Z,13.14
2023-10-20T19:18:01.533Z,13.15
2023-10-20T19:20:31.002Z,13.12
2023-10-20T19:22:57.516Z,13.13
2023-10-20T19:25:24.104Z,13.13
2023-10-20T19:27:50.520Z,13.09
2023-10-20T19:30:17.291Z,13.06
2023-10-20T19:32:43.753Z,13.06
2023-10-20T19:35:10.327Z,13.05
2023-10-20T19:37:38.205Z,13.03
2023-10-20T19:40:06.836Z,13.00
2023-10-20T19:42:33.322Z,12.95
2023-10-20T19:44:59.845Z,12.92
2023-10-20T19:47:26.454Z,12.94
2023-10-20T19:49:54.297Z,12.92
2023-10-20T19:52:20.777Z,12.91
2023-10-20T19:54:47.302Z,12.87
2023-10-20T19:57:13.714Z,12.87
2023-10-20T19:59:40.135Z,12.87
2023-10-20T20:02:06.710Z,12.87
2023-10-20T20:04:33.905Z,12.89
2023-10-20T20:07:00.656Z,12.87
2023-10-20T20:09:27.009Z,12.89
2023-10-20T20:11:54.073Z,12.87
2023-10-20T20:14:20.541Z,12.83
2023-10-20T20:16:49.175Z,12.80
2023-10-20T20:19:15.746Z,12.85
2023-10-20T20:21:42.235Z,12.87
2023-10-20T20:24:09.072Z,12.90
2023-10-20T20:26:35.580Z,12.90
2023-10-20T20:29:04.107Z,12.92
2023-10-20T20:31:30.696Z,12.91
2023-10-20T20:33:57.123Z,12.90
2023-10-20T20:36:23.736Z,12.92
2023-10-20T20:38:50.429Z,12.94
2023-10-20T20:41:17.003Z,12.91
2023-10-20T20:43:43.755Z,12.90
2023-10-20T20:46:10.722Z,12.87
2023-10-20T20:48:37.250Z,12.87
2023-10-20T20:51:08.901Z,12.85
2023-10-20T20:53:35.354Z,12.85
2023-10-20T20:56:01.753Z,12.86
2023-10-20T20:58:28.130Z,12.83
2023-10-20T21:00:56.076Z,12.84
2023-10-20T21:03:22.719Z,12.82
2023-10-20T21:06:00.923Z,12.70
2023-10-20T21:08:27.626Z,12.63
2023-10-20T21:10:53.977Z,12.62
2023-10-20T21:13:20.370Z,12.61
2023-10-20T21:15:46.750Z,12.57
2023-10-20T21:18:13.249Z,12.52
2023-10-20T21:20:40.094Z,12.53
2023-10-20T21:23:06.829Z,12.48
2023-10-20T21:25:37.991Z,12.46
2023-10-20T21:28:05.391Z,12.46
2023-10-20T21:30:32.158Z,12.49
2023-10-20T21:32:58.725Z,12.56
2023-10-20T21:35:25.302Z,12.53
2023-10-20T21:37:51.664Z,12.53
2023-10-20T21:40:18.132Z,12.43
2023-10-20T21:42:44.612Z,12.39
2023-10-20T21:45:11.366Z,12.37
2023-10-20T21:47:38.445Z,12.35
2023-10-20T21:50:09.426Z,12.39
2023-10-20T21:52:35.864Z,12.38
2023-10-20T21:55:02.294Z,12.33
2023-10-20T21:57:28.708Z,12.31
2023-10-20T21:59:55.157Z,12.29
2023-10-20T22:02:21.690Z,12.23
2023-10-20T22:04:48.063Z,12.16
2023-10-20T22:07:14.580Z,12.18
2023-10-20T22:09:52.942Z,12.14
2023-10-20T22:12:20.515Z,12.12
2023-10-20T22:14:47.042Z,12.08
2023-10-20T22:17:13.509Z,12.05
2023-10-20T22:19:40.032Z,12.05
2023-10-20T22:22:06.701Z,12.00
2023-10-20T22:24:33.184Z,11.98
2023-10-20T22:27:00.056Z,11.96
2023-10-20T22:29:26.520Z,11.93
2023-10-20T22:31:52.946Z,11.89
2023-10-20T22:34:19.568Z,11.89
2023-10-20T22:36:46.486Z,11.87
2023-10-20T22:39:12.944Z,11.83
2023-10-20T22:41:39.434Z,11.82
2023-10-20T22:44:05.964Z,11.81
2023-10-20T22:46:32.393Z,11.81
2023-10-20T22:48:58.854Z,11.83
2023-10-20T22:51:25.302Z,11.80
2023-10-20T22:53:51.806Z,11.77
2023-10-20T22:56:18.289Z,11.76
2023-10-20T22:58:44.758Z,11.75
2023-10-20T23:01:11.284Z,11.72
2023-10-20T23:03:37.813Z,11.70
2023-10-20T23:06:04.522Z,11.68
2023-10-20T23:08:32.964Z,11.62
2023-10-20T23:10:59.684Z,11.61
2023-10-20T23:13:26.420Z,11.63
2023-10-20T23:15:52.878Z,11.61
2023-10-20T23:18:19.443Z,11.64
2023-10-20T23:20:46.013Z,11.66
2023-10-20T23:23:12.458Z,11.62
2023-10-20T23:25:38.885Z,11.58
2023-10-20T23:28:05.459Z,11.54
2023-10-20T23:30:31.875Z,11.57
2023-10-20T23:32:58.378Z,11.52
2023-10-20T23:37:51.457Z,11.52
2023-10-20T23:40:18.466Z,11.45
2023-10-20T23:42:44.904Z,11.40
2023-10-20T23:45:11.507Z,11.41
2023-10-20T23:47:38.219Z,11.40
2023-10-20T23:50:06.551Z,11.40
2023-10-20T23:52:33.490Z,11.38
2023-10-20T23:54:59.933Z,11.40
2023-10-20T23:57:26.330Z,11.33
2023-10-20T23:59:52.778Z,11.31
